createdAt,value
2018-07-14T18:36:23.695Z,98652.01
2018-07-14T18:38:50.877Z,98650.09
2018-07-14T18:41:17.602Z,98649.25
2018-07-14T18:43:48.122Z,98647.58
2018-07-14T18:46:15.723Z,98656.62
2018-07-14T18:51:28.520Z,98663.46
2018-07-14T18:56:05.073Z,98666.72
2018-07-14T18:58:37.713Z,98673.52
2018-07-14T19:01:04.565Z,98667.30
2018-07-14T19:03:36.583Z,98665.66
2018-07-14T19:06:04.661Z,98664.48
2018-07-14T19:08:32.308Z,98670.77
2018-07-14T19:11:00.593Z,98675.75
2018-07-14T19:15:55.556Z,98676.88
2018-07-14T19:20:19.568Z,98680.37
2018-07-14T19:22:46.283Z,98682.40
2018-07-14T19:25:13.981Z,98687.11
2018-07-14T19:27:41.954Z,98683.69
2018-07-14T19:30:08.492Z,98688.12
2018-07-14T19:32:36.062Z,98689.37
2018-07-14T19:35:03.766Z,98692.03
2018-07-14T19:37:30.240Z,98695.53
2018-07-14T19:39:56.826Z,98697.78
2018-07-14T19:42:24.348Z,98695.84
2018-07-14T19:44:51.265Z,98700.09
2018-07-14T19:47:17.921Z,98703.88
2018-07-14T19:49:45.696Z,98702.45
2018-07-14T19:52:12.214Z,98707.31
2018-07-14T19:54:38.689Z,98703.84
2018-07-14T19:57:06.598Z,98704.18
2018-07-14T19:59:35.081Z,98713.61
2018-07-14T20:02:01.678Z,98720.11
2018-07-14T20:04:29.200Z,98723.00
2018-07-14T20:06:55.774Z,98716.07
2018-07-14T20:09:22.261Z,98722.12
2018-07-14T20:11:49.286Z,98724.02
2018-07-14T20:14:15.782Z,98720.49
2018-07-14T20:16:42.311Z,98726.98
2018-07-14T20:19:08.889Z,98721.95
2018-07-14T20:21:35.341Z,98724.97
2018-07-14T20:24:02.253Z,98728.35
2018-07-14T20:26:28.746Z,98728.53
2018-07-14T20:28:59.487Z,98722.38
2018-07-14T20:31:26.482Z,98730.73
2018-07-14T20:33:52.973Z,98729.34
2018-07-14T20:36:19.617Z,98723.04
2018-07-14T20:38:47.162Z,98736.27
2018-07-14T20:41:13.815Z,98729.13
2018-07-14T20:43:41.022Z,98726.84
2018-07-14T20:46:08.156Z,98732.84
2018-07-14T20:48:35.830Z,98731.47
2018-07-14T20:51:02.468Z,98738.69
2018-07-14T20:53:30.548Z,98727.69
2018-07-14T20:55:58.642Z,98735.05
2018-07-14T20:58:26.269Z,98740.06
2018-07-14T21:00:55.170Z,98739.38
2018-07-14T21:03:22.308Z,98736.39
2018-07-14T21:05:48.832Z,98737.72
2018-07-14T21:08:16.533Z,98739.81
2018-07-14T21:10:43.554Z,98737.18
2018-07-14T21:13:10.054Z,98740.71
2018-07-14T21:15:38.657Z,98745.13
2018-07-14T21:18:05.181Z,98739.91
2018-07-14T21:20:31.657Z,98742.36
2018-07-14T21:22:58.537Z,98740.41
2018-07-14T21:25:25.681Z,98743.08
2018-07-14T21:27:52.589Z,98744.05
2018-07-14T21:30:19.517Z,98741.73
2018-07-14T21:32:46.156Z,98743.31
2018-07-14T21:35:13.512Z,98742.47
2018-07-14T21:37:40.467Z,98749.02
2018-07-14T21:40:07.158Z,98754.32
2018-07-14T21:42:35.369Z,98754.94
2018-07-14T21:45:03.757Z,98751.17
2018-07-14T21:47:31.717Z,98750.45
2018-07-14T21:49:58.376Z,98755.55
2018-07-14T21:52:25.170Z,98753.13
2018-07-14T21:54:51.614Z,98754.42
2018-07-14T21:57:18.100Z,98757.81
2018-07-14T21:59:44.853Z,98755.50
2018-07-14T22:02:12.680Z,98754.12
2018-07-14T22:04:40.909Z,98755.21
2018-07-14T22:07:07.859Z,98753.48
2018-07-14T22:09:34.301Z,98763.17
2018-07-14T22:12:01.794Z,98760.22
2018-07-14T22:14:28.698Z,98763.11
2018-07-14T22:16:55.457Z,98757.11
2018-07-14T22:19:21.982Z,98763.42
2018-07-14T22:21:49.925Z,98759.05
2018-07-14T22:24:16.417Z,98762.55
2018-07-14T22:26:43.797Z,98761.54
2018-07-14T22:29:11.259Z,98761.29
2018-07-14T22:31:37.748Z,98760.89
2018-07-14T22:34:05.060Z,98762.42
2018-07-14T22:36:32.733Z,98767.09
2018-07-14T22:38:59.235Z,98765.61
2018-07-14T22:41:26.348Z,98763.39
2018-07-14T22:43:53.334Z,98759.49
2018-07-14T22:46:20.232Z,98754.09
2018-07-14T22:48:46.757Z,98753.84
2018-07-14T22:51:14.508Z,98753.18
2018-07-14T22:53:41.572Z,98759.16
2018-07-14T22:56:09.565Z,98757.63
2018-07-14T22:58:36.440Z,98759.78
2018-07-14T23:01:02.937Z,98761.13
2018-07-14T23:03:29.430Z,98758.81
2018-07-14T23:05:56.350Z,98761.30
2018-07-14T23:08:22.851Z,98757.27
2018-07-14T23:10:49.311Z,98753.48
2018-07-14T23:13:16.261Z,98753.23
2018-07-14T23:15:42.717Z,98747.14
2018-07-14T23:18:09.224Z,98744.61
2018-07-14T23:20:37.686Z,98749.55
2018-07-14T23:23:04.164Z,98746.75
2018-07-14T23:25:30.658Z,98749.97
2018-07-14T23:27:59.129Z,98741.47
2018-07-14T23:30:25.610Z,98746.79
2018-07-14T23:32:52.106Z,98745.20
2018-07-14T23:35:19.003Z,98741.30
2018-07-14T23:37:45.525Z,98746.53
2018-07-14T23:40:12.026Z,98741.89
2018-07-14T23:42:39.011Z,98739.23
2018-07-14T23:45:06.113Z,98744.29
2018-07-14T23:47:32.613Z,98743.17
2018-07-14T23:49:59.469Z,98740.12
2018-07-14T23:52:25.965Z,98739.61
2018-07-14T23:54:52.421Z,98739.91
2018-07-14T23:57:19.335Z,98737.36
2018-07-14T23:59:45.795Z,98732.99
